Nautilus — OUYX2 — position and weather

sailwx.info

Track history (hours):
 
Tides and Currents Weather Stations Pressure Air Temp Water Temp Dewpoint Dewpoint Depression Visibility Wind Speed Wind Dir Waves Ship Positions

Nautilus

Last reported at 2017-Jun-28 16:17 UTC. Time now 2017-Jun-28 22:53 UTC.
Position N 53°06' E 004°26'.

Length 120 m; draft 5 m.

Type: Ship. MMSI: 219425000.

Date/timePositionNaut miles runAvg speedWind from/ knotsBaromVisibWave heightAir tempDewpointWater temp
2017-Jun-28 16:17N 53°06' E 004°26'413.9
2017-Jun-28 16:00N 53°02' E 004°23'713.8
2017-Jun-28 15:30N 52°56' E 004°20'713.4
2017-Jun-28 14:59N 52°50' E 004°15'1313.3
2017-Jun-28 14:00N 52°40' E 004°00'5613.3
2017-Jun-28 09:46N 51°49' E 003°20'0 0.0
2017-Jun-28 09:29N 51°49' E 003°20'2 4.9
2017-Jun-28 09:00N 51°47' E 003°22'0 0.0
2017-Jun-28 07:41N 51°47' E 003°22'0 0.0
2017-Jun-28 07:30N 51°47' E 003°22'0 0.0
2017-Jun-28 07:00N 51°47' E 003°22'0 0.0
2017-Jun-28 06:30N 51°47' E 003°22'0 0.0
2017-Jun-28 06:00N 51°47' E 003°22'0 0.0
2017-Jun-28 05:30N 51°47' E 003°22'0 0.0
2017-Jun-28 05:00N 51°47' E 003°22'0 0.0
2017-Jun-28 04:30N 51°47' E 003°22'0 0.0
2017-Jun-27 19:33N 51°47' E 003°21'0 0.0
2017-Jun-27 19:30N 51°47' E 003°21'0 0.0
2017-Jun-27 18:57N 51°47' E 003°21'0 0.1
2017-Jun-27 18:30N 51°47' E 003°22'0 0.0
2017-Jun-27 18:00N 51°47' E 003°22'0 0.0
2017-Jun-27 17:30N 51°47' E 003°22'0 0.0
2017-Jun-27 17:00N 51°47' E 003°22'0 0.0
2017-Jun-27 16:30N 51°47' E 003°22'0 0.0
2017-Jun-27 16:00N 51°47' E 003°22'0 0.0
2017-Jun-27 15:30N 51°47' E 003°22'0 0.1
2017-Jun-27 15:00N 51°47' E 003°22'0 0.2
2017-Jun-27 14:30N 51°47' E 003°22'0 0.1
2017-Jun-27 13:26N 51°47' E 003°21'0 0.0
2017-Jun-27 13:00N 51°47' E 003°21'0 0.0
2017-Jun-27 09:20N 51°47' E 003°21'0 0.1
2017-Jun-27 09:00N 51°47' E 003°21'0 0.0
2017-Jun-27 08:30N 51°47' E 003°21'0 0.0
2017-Jun-27 07:53N 51°47' E 003°21'0 0.0
2017-Jun-27 07:30N 51°47' E 003°21'0 0.1
2017-Jun-27 07:00N 51°47' E 003°21'0 0.1
2017-Jun-27 06:30N 51°47' E 003°21'0 0.1
2017-Jun-27 06:00N 51°47' E 003°22'0 0.0
2017-Jun-27 05:30N 51°47' E 003°22'0 0.1
2017-Jun-27 05:00N 51°47' E 003°22'0 0.4
2017-Jun-27 04:30N 51°47' E 003°21'510.6
2017-Jun-27 04:00N 51°42' E 003°18'5 9.1
2017-Jun-27 03:30N 51°38' E 003°22'714.6
2017-Jun-27 03:00N 51°31' E 003°26'612.6
2017-Jun-27 02:30N 51°27' E 003°33'5 9.6
2017-Jun-27 02:00N 51°26' E 003°41'511.0
2017-Jun-27 01:31N 51°22' E 003°46'1 1.9
2017-Jun-27 01:00N 51°21' E 003°46'0 0.0
2017-Jun-27 00:19N 51°21' E 003°46'0 0.0
2017-Jun-26 23:55N 51°21' E 003°46'0 0.0
2017-Jun-26 23:13N 51°21' E 003°46'0 0.0
2017-Jun-26 22:55N 51°21' E 003°46'0 0.0
2017-Jun-26 22:25N 51°21' E 003°46'0 0.0
2017-Jun-26 21:55N 51°21' E 003°46'0 0.0
2017-Jun-26 21:19N 51°21' E 003°46'0 0.0
2017-Jun-26 20:55N 51°21' E 003°46'0 0.0
2017-Jun-26 20:25N 51°21' E 003°46'0 0.0
2017-Jun-26 19:55N 51°21' E 003°46'0 0.0
2017-Jun-26 19:25N 51°21' E 003°46'0 0.0
2017-Jun-26 18:37N 51°21' E 003°46'0 0.0
2017-Jun-26 18:19N 51°21' E 003°46'0 0.0
2017-Jun-26 17:55N 51°21' E 003°46'0 0.0
2017-Jun-26 17:19N 51°21' E 003°46'0 0.0
2017-Jun-26 16:55N 51°21' E 003°46'0 0.0
2017-Jun-26 16:25N 51°21' E 003°46'0 0.0
2017-Jun-26 15:55N 51°21' E 003°46'0 0.0
2017-Jun-26 15:19N 51°21' E 003°46'0 0.0
2017-Jun-26 14:37N 51°21' E 003°46'0 0.0
2017-Jun-26 14:25N 51°21' E 003°46'0 0.0
2017-Jun-26 13:25N 51°21' E 003°46'0 0.0
2017-Jun-26 12:37N 51°21' E 003°46'0 0.0
2017-Jun-26 12:25N 51°21' E 003°46'0 0.0
2017-Jun-26 11:55N 51°21' E 003°46'0 0.0
2017-Jun-26 11:25N 51°21' E 003°46'0 0.0
2017-Jun-26 10:55N 51°21' E 003°46'0 0.0
2017-Jun-26 10:25N 51°21' E 003°46'0 0.0
2017-Jun-26 09:55N 51°21' E 003°46'0 0.0
2017-Jun-26 09:13N 51°21' E 003°46'0 0.0
2017-Jun-26 08:49N 51°21' E 003°46'0 0.0
2017-Jun-26 08:25N 51°21' E 003°46'0 0.0
2017-Jun-26 07:55N 51°21' E 003°46'0 0.0
2017-Jun-26 07:19N 51°21' E 003°46'0 0.0
2017-Jun-26 06:55N 51°21' E 003°46'0 0.0
2017-Jun-26 06:19N 51°21' E 003°46'0 0.0
2017-Jun-26 05:55N 51°21' E 003°46'0 0.0
2017-Jun-26 05:25N 51°21' E 003°46'0 0.0
2017-Jun-26 04:49N 51°21' E 003°46'0 0.0
2017-Jun-26 04:25N 51°21' E 003°46'0 0.0
2017-Jun-26 03:55N 51°21' E 003°46'0 0.0
2017-Jun-26 03:25N 51°21' E 003°46'0 0.0
2017-Jun-26 02:55N 51°21' E 003°46'0 0.0
2017-Jun-26 02:25N 51°21' E 003°46'0 0.0
2017-Jun-26 01:49N 51°21' E 003°46'0 0.0
2017-Jun-26 01:25N 51°21' E 003°46'0 0.0
2017-Jun-26 00:55N 51°21' E 003°46'0 0.0
2017-Jun-26 00:25N 51°21' E 003°46'0 0.0
2017-Jun-25 23:55N 51°21' E 003°46'0 0.0
2017-Jun-25 23:19N 51°21' E 003°46'0 0.0
2017-Jun-25 22:55N 51°21' E 003°46'0 0.0
2017-Jun-25 22:25N 51°21' E 003°46'0 0.0
2017-Jun-25 21:55N 51°21' E 003°46'0 0.0
2017-Jun-25 21:13N 51°21' E 003°46'0 0.0
2017-Jun-25 20:25N 51°21' E 003°46'0 0.0
2017-Jun-25 20:00N 51°21' E 003°46'1 2.1
2017-Jun-25 19:31N 51°22' E 003°45'4 7.3
2017-Jun-25 19:01N 51°25' E 003°42'4 8.7
2017-Jun-25 18:30N 51°26' E 003°35'4 8.4
2017-Jun-25 18:01N 51°29' E 003°30'4 8.7
2017-Jun-25 17:30N 51°32' E 003°25'4 8.4
2017-Jun-25 17:00N 51°36' E 003°23'1723.9
2017-Jun-25 16:17N 51°53' E 003°18'0 0.0
2017-Jun-25 16:00N 51°53' E 003°18'0 0.0
2017-Jun-25 15:30N 51°53' E 003°18'1 1.9
2017-Jun-25 15:00N 51°54' E 003°18'6011.4
2017-Jun-25 09:44N 52°51' E 003°49'313.3
2017-Jun-25 09:30N 52°53' E 003°52'713.1
2017-Jun-25 09:00N 52°58' E 003°60'612.8
2017-Jun-25 08:30N 53°02' E 004°08'712.3
2017-Jun-25 07:56N 53°07' E 004°16'611.7
2017-Jun-25 07:28N 53°10' E 004°23'811.3
2017-Jun-25 06:47N 53°17' E 004°30'311.3
2017-Jun-25 06:29N 53°20' E 004°32'511.2
2017-Jun-25 06:01N 53°25' E 004°35'5 9.7
2017-Jun-25 05:29N 53°29' E 004°41'510.2
2017-Jun-25 05:01N 53°30' E 004°49'510.3
2017-Jun-25 04:30N 53°32' E 004°57'510.8
2017-Jun-25 04:01N 53°34' E 005°06'611.6
2017-Jun-25 03:31N 53°36' E 005°15'612.3
2017-Jun-25 03:00N 53°38' E 005°25'712.6
2017-Jun-25 02:25N 53°40' E 005°37'512.8
2017-Jun-25 02:00N 53°42' E 005°45'612.6
2017-Jun-25 01:30N 53°44' E 005°55'6211.2
2017-Jun-24 19:58N 54°00' E 007°37'510.4
2017-Jun-24 19:29N 54°01' E 007°46'511.1
2017-Jun-24 19:00N 54°01' E 007°55'811.4
2017-Jun-24 18:18N 54°01' E 008°08'411.6
2017-Jun-24 17:59N 54°00' E 008°15'611.7
2017-Jun-24 17:30N 53°59' E 008°24'714.4
2017-Jun-24 17:00N 53°58' E 008°36'714.8
2017-Jun-24 16:30N 53°52' E 008°44'713.7
2017-Jun-24 16:01N 53°51' E 008°55'713.6
2017-Jun-24 15:31N 53°53' E 009°06'2 3.5
2017-Jun-24 15:00N 53°54' E 009°09'3 2.9
2017-Jun-24 14:01N 53°56' E 009°12'4 7.6
2017-Jun-24 13:30N 53°59' E 009°16'4 8.2
2017-Jun-24 13:00N 54°03' E 009°18'5 8.9
2017-Jun-24 12:26N 54°08' E 009°20'58 3.8
2017-Jun-23 21:09N 54°37' E 010°45'211.9
2017-Jun-23 21:00N 54°39' E 010°47'611.2
2017-Jun-23 20:30N 54°44' E 010°51'611.0
2017-Jun-23 20:00N 54°49' E 010°52'611.2
2017-Jun-23 19:30N 54°55' E 010°54'611.2
2017-Jun-23 19:01N 54°59' E 011°00'611.4
2017-Jun-23 18:30N 55°05' E 011°02'611.4
2017-Jun-23 18:00N 55°10' E 011°03'510.6
2017-Jun-23 17:30N 55°16' E 011°04'24 0.7
2017-Jun-22 08:12N 55°40' E 011°06'0 0.0
2017-Jun-22 07:57N 55°40' E 011°06'0 0.0
2017-Jun-22 07:27N 55°40' E 011°06'0 0.0
2017-Jun-22 06:42N 55°40' E 011°06'0 0.0
2017-Jun-22 05:39N 55°40' E 011°06'0 0.0
2017-Jun-22 05:30N 55°40' E 011°06'85 2.8
2017-Jun-20 23:20N 57°03' E 011°41'413.2
2017-Jun-20 23:00N 57°07' E 011°38'712.8
2017-Jun-20 22:29N 57°14' E 011°34'612.9
2017-Jun-20 22:00N 57°19' E 011°30'713.0
2017-Jun-20 21:30N 57°26' E 011°26'612.6
2017-Jun-20 21:00N 57°31' E 011°19'713.3
2017-Jun-20 20:30N 57°35' E 011°10'713.4
2017-Jun-20 20:00N 57°40' E 011°01'713.4
2017-Jun-20 19:29N 57°44' E 010°51'612.8
2017-Jun-20 19:00N 57°48' E 010°42'713.6
2017-Jun-20 18:31N 57°47' E 010°29'813.0
2017-Jun-20 17:55N 57°46' E 010°15'10213.3
2017-Jun-20 10:16N 57°42' E 007°04'313.0
2017-Jun-20 10:01N 57°42' E 006°58'612.8
2017-Jun-20 09:30N 57°43' E 006°46'612.3
2017-Jun-20 09:00N 57°43' E 006°34'613.1
2017-Jun-20 08:31N 57°47' E 006°25'612.3
2017-Jun-20 08:00N 57°51' E 006°16'612.0
2017-Jun-20 07:30N 57°55' E 006°07'612.9
2017-Jun-20 07:00N 57°59' E 005°58'713.4
2017-Jun-20 06:29N 58°04' E 005°48'1113.1
2017-Jun-20 05:41N 58°11' E 005°33'1612.7
2017-Jun-20 04:27N 58°21' E 005°11'612.6
2017-Jun-20 04:00N 58°25' E 005°04'612.7
2017-Jun-20 03:31N 58°30' E 004°55'612.9
2017-Jun-20 03:01N 58°34' E 004°47'12210.9
2017-Jun-19 15:52N 60°36' E 004°21'411.6
2017-Jun-19 15:30N 60°39' E 004°25'610.9
2017-Jun-19 15:00N 60°44' E 004°32'8 8.0
2017-Jun-19 14:00N 60°49' E 004°44'611.1
2017-Jun-19 13:30N 60°51' E 004°55'4 8.5
2017-Jun-19 13:00N 60°49' E 005°03'0 0.0
2017-Jun-19 12:28N 60°49' E 005°03'0 0.0
2017-Jun-19 11:58N 60°49' E 005°03'0 0.0
2017-Jun-19 11:28N 60°49' E 005°03'0 0.0
2017-Jun-19 10:58N 60°49' E 005°03'0 0.0
2017-Jun-19 10:28N 60°49' E 005°03'0 0.0
2017-Jun-19 09:58N 60°49' E 005°03'0 0.0
2017-Jun-19 09:28N 60°49' E 005°03'0 0.0
2017-Jun-19 08:58N 60°49' E 005°03'0 0.0
2017-Jun-19 08:28N 60°49' E 005°03'0 0.0
2017-Jun-19 07:58N 60°49' E 005°03'0 0.0
2017-Jun-19 07:28N 60°49' E 005°03'0 0.0
2017-Jun-19 06:58N 60°49' E 005°03'0 0.0
2017-Jun-19 06:28N 60°49' E 005°03'0 0.0
2017-Jun-19 05:58N 60°49' E 005°03'0 0.0
2017-Jun-19 05:28N 60°49' E 005°03'0 0.0
2017-Jun-19 04:58N 60°49' E 005°03'0 0.0
2017-Jun-19 04:28N 60°49' E 005°03'0 0.0
2017-Jun-19 03:58N 60°49' E 005°03'0 0.0
2017-Jun-19 03:28N 60°49' E 005°03'0 0.0
2017-Jun-19 02:58N 60°49' E 005°03'0 0.0
2017-Jun-19 02:28N 60°49' E 005°03'0 0.0
2017-Jun-19 01:58N 60°49' E 005°03'0 0.0
2017-Jun-19 01:28N 60°49' E 005°03'0 0.0
2017-Jun-19 00:58N 60°49' E 005°03'0 0.0
2017-Jun-19 00:28N 60°49' E 005°03'0 0.0
2017-Jun-18 23:58N 60°49' E 005°03'0 0.0
2017-Jun-18 23:28N 60°49' E 005°03'0 0.0
2017-Jun-18 22:58N 60°49' E 005°03'0 0.0
2017-Jun-18 22:28N 60°49' E 005°03'0 0.0
2017-Jun-18 21:58N 60°49' E 005°03'0 0.0
2017-Jun-18 21:28N 60°49' E 005°03'0 0.0
2017-Jun-18 20:58N 60°49' E 005°03'0 0.0
2017-Jun-18 20:28N 60°49' E 005°03'0 0.0
2017-Jun-18 19:58N 60°49' E 005°03'0 0.0
2017-Jun-18 19:28N 60°49' E 005°03'0 0.0
2017-Jun-18 18:58N 60°49' E 005°03'0 0.0
2017-Jun-18 18:28N 60°49' E 005°03'0 0.0
2017-Jun-18 17:59N 60°49' E 005°03'1 1.1
2017-Jun-18 17:30N 60°49' E 005°02'2 4.0
2017-Jun-18 17:00N 60°49' E 004°58'0 0.0
2017-Jun-18 16:30N 60°49' E 004°58'  
Track history (hours):
 
Tides and Currents Weather Stations Pressure Air Temp Water Temp Dewpoint Dewpoint Depression Visibility Wind Speed Wind Dir Waves Ship Positions

Nautilus

Last reported at 2017-Jun-28 16:17 UTC. Time now 2017-Jun-28 22:53 UTC.
Position N 53°06' E 004°26'.

Length 120 m; draft 5 m.

Type: Ship. MMSI: 219425000.

Date/timePositionNaut miles runAvg speedWind from/ knotsBaromVisibWave heightAir tempDewpointWater temp
2017-Jun-28 16:17N 53°06' E 004°26'413.9
2017-Jun-28 16:00N 53°02' E 004°23'713.8
2017-Jun-28 15:30N 52°56' E 004°20'713.4
2017-Jun-28 14:59N 52°50' E 004°15'1313.3
2017-Jun-28 14:00N 52°40' E 004°00'5613.3
2017-Jun-28 09:46N 51°49' E 003°20'0 0.0
2017-Jun-28 09:29N 51°49' E 003°20'2 4.9
2017-Jun-28 09:00N 51°47' E 003°22'0 0.0
2017-Jun-28 07:41N 51°47' E 003°22'0 0.0
2017-Jun-28 07:30N 51°47' E 003°22'0 0.0
2017-Jun-28 07:00N 51°47' E 003°22'0 0.0
2017-Jun-28 06:30N 51°47' E 003°22'0 0.0
2017-Jun-28 06:00N 51°47' E 003°22'0 0.0
2017-Jun-28 05:30N 51°47' E 003°22'0 0.0
2017-Jun-28 05:00N 51°47' E 003°22'0 0.0
2017-Jun-28 04:30N 51°47' E 003°22'0 0.0
2017-Jun-27 19:33N 51°47' E 003°21'0 0.0
2017-Jun-27 19:30N 51°47' E 003°21'0 0.0
2017-Jun-27 18:57N 51°47' E 003°21'0 0.1
2017-Jun-27 18:30N 51°47' E 003°22'0 0.0
2017-Jun-27 18:00N 51°47' E 003°22'0 0.0
2017-Jun-27 17:30N 51°47' E 003°22'0 0.0
2017-Jun-27 17:00N 51°47' E 003°22'0 0.0
2017-Jun-27 16:30N 51°47' E 003°22'0 0.0
2017-Jun-27 16:00N 51°47' E 003°22'0 0.0
2017-Jun-27 15:30N 51°47' E 003°22'0 0.1
2017-Jun-27 15:00N 51°47' E 003°22'0 0.2
2017-Jun-27 14:30N 51°47' E 003°22'0 0.1
2017-Jun-27 13:26N 51°47' E 003°21'0 0.0
2017-Jun-27 13:00N 51°47' E 003°21'0 0.0
2017-Jun-27 09:20N 51°47' E 003°21'0 0.1
2017-Jun-27 09:00N 51°47' E 003°21'0 0.0
2017-Jun-27 08:30N 51°47' E 003°21'0 0.0
2017-Jun-27 07:53N 51°47' E 003°21'0 0.0
2017-Jun-27 07:30N 51°47' E 003°21'0 0.1
2017-Jun-27 07:00N 51°47' E 003°21'0 0.1
2017-Jun-27 06:30N 51°47' E 003°21'0 0.1
2017-Jun-27 06:00N 51°47' E 003°22'0 0.0
2017-Jun-27 05:30N 51°47' E 003°22'0 0.1
2017-Jun-27 05:00N 51°47' E 003°22'0 0.4
2017-Jun-27 04:30N 51°47' E 003°21'510.6
2017-Jun-27 04:00N 51°42' E 003°18'5 9.1
2017-Jun-27 03:30N 51°38' E 003°22'714.6
2017-Jun-27 03:00N 51°31' E 003°26'612.6
2017-Jun-27 02:30N 51°27' E 003°33'5 9.6
2017-Jun-27 02:00N 51°26' E 003°41'511.0
2017-Jun-27 01:31N 51°22' E 003°46'1 1.9
2017-Jun-27 01:00N 51°21' E 003°46'0 0.0
2017-Jun-27 00:19N 51°21' E 003°46'0 0.0
2017-Jun-26 23:55N 51°21' E 003°46'0 0.0
2017-Jun-26 23:13N 51°21' E 003°46'0 0.0
2017-Jun-26 22:55N 51°21' E 003°46'0 0.0
2017-Jun-26 22:25N 51°21' E 003°46'0 0.0
2017-Jun-26 21:55N 51°21' E 003°46'0 0.0
2017-Jun-26 21:19N 51°21' E 003°46'0 0.0
2017-Jun-26 20:55N 51°21' E 003°46'0 0.0
2017-Jun-26 20:25N 51°21' E 003°46'0 0.0
2017-Jun-26 19:55N 51°21' E 003°46'0 0.0
2017-Jun-26 19:25N 51°21' E 003°46'0 0.0
2017-Jun-26 18:37N 51°21' E 003°46'0 0.0
2017-Jun-26 18:19N 51°21' E 003°46'0 0.0
2017-Jun-26 17:55N 51°21' E 003°46'0 0.0
2017-Jun-26 17:19N 51°21' E 003°46'0 0.0
2017-Jun-26 16:55N 51°21' E 003°46'0 0.0
2017-Jun-26 16:25N 51°21' E 003°46'0 0.0
2017-Jun-26 15:55N 51°21' E 003°46'0 0.0
2017-Jun-26 15:19N 51°21' E 003°46'0 0.0
2017-Jun-26 14:37N 51°21' E 003°46'0 0.0
2017-Jun-26 14:25N 51°21' E 003°46'0 0.0
2017-Jun-26 13:25N 51°21' E 003°46'0 0.0
2017-Jun-26 12:37N 51°21' E 003°46'0 0.0
2017-Jun-26 12:25N 51°21' E 003°46'0 0.0
2017-Jun-26 11:55N 51°21' E 003°46'0 0.0
2017-Jun-26 11:25N 51°21' E 003°46'0 0.0
2017-Jun-26 10:55N 51°21' E 003°46'0 0.0
2017-Jun-26 10:25N 51°21' E 003°46'0 0.0
2017-Jun-26 09:55N 51°21' E 003°46'0 0.0
2017-Jun-26 09:13N 51°21' E 003°46'0 0.0
2017-Jun-26 08:49N 51°21' E 003°46'0 0.0
2017-Jun-26 08:25N 51°21' E 003°46'0 0.0
2017-Jun-26 07:55N 51°21' E 003°46'0 0.0
2017-Jun-26 07:19N 51°21' E 003°46'0 0.0
2017-Jun-26 06:55N 51°21' E 003°46'0 0.0
2017-Jun-26 06:19N 51°21' E 003°46'0 0.0
2017-Jun-26 05:55N 51°21' E 003°46'0 0.0
2017-Jun-26 05:25N 51°21' E 003°46'0 0.0
2017-Jun-26 04:49N 51°21' E 003°46'0 0.0
2017-Jun-26 04:25N 51°21' E 003°46'0 0.0
2017-Jun-26 03:55N 51°21' E 003°46'0 0.0
2017-Jun-26 03:25N 51°21' E 003°46'0 0.0
2017-Jun-26 02:55N 51°21' E 003°46'0 0.0
2017-Jun-26 02:25N 51°21' E 003°46'0 0.0
2017-Jun-26 01:49N 51°21' E 003°46'0 0.0
2017-Jun-26 01:25N 51°21' E 003°46'0 0.0
2017-Jun-26 00:55N 51°21' E 003°46'0 0.0
2017-Jun-26 00:25N 51°21' E 003°46'0 0.0
2017-Jun-25 23:55N 51°21' E 003°46'0 0.0
2017-Jun-25 23:19N 51°21' E 003°46'0 0.0
2017-Jun-25 22:55N 51°21' E 003°46'0 0.0
2017-Jun-25 22:25N 51°21' E 003°46'0 0.0
2017-Jun-25 21:55N 51°21' E 003°46'0 0.0
2017-Jun-25 21:13N 51°21' E 003°46'0 0.0
2017-Jun-25 20:25N 51°21' E 003°46'0 0.0
2017-Jun-25 20:00N 51°21' E 003°46'1 2.1
2017-Jun-25 19:31N 51°22' E 003°45'4 7.3
2017-Jun-25 19:01N 51°25' E 003°42'4 8.7
2017-Jun-25 18:30N 51°26' E 003°35'4 8.4
2017-Jun-25 18:01N 51°29' E 003°30'4 8.7
2017-Jun-25 17:30N 51°32' E 003°25'4 8.4
2017-Jun-25 17:00N 51°36' E 003°23'1723.9
2017-Jun-25 16:17N 51°53' E 003°18'0 0.0
2017-Jun-25 16:00N 51°53' E 003°18'0 0.0
2017-Jun-25 15:30N 51°53' E 003°18'1 1.9
2017-Jun-25 15:00N 51°54' E 003°18'6011.4
2017-Jun-25 09:44N 52°51' E 003°49'313.3
2017-Jun-25 09:30N 52°53' E 003°52'713.1
2017-Jun-25 09:00N 52°58' E 003°60'612.8
2017-Jun-25 08:30N 53°02' E 004°08'712.3
2017-Jun-25 07:56N 53°07' E 004°16'611.7
2017-Jun-25 07:28N 53°10' E 004°23'811.3
2017-Jun-25 06:47N 53°17' E 004°30'311.3
2017-Jun-25 06:29N 53°20' E 004°32'511.2
2017-Jun-25 06:01N 53°25' E 004°35'5 9.7
2017-Jun-25 05:29N 53°29' E 004°41'510.2
2017-Jun-25 05:01N 53°30' E 004°49'510.3
2017-Jun-25 04:30N 53°32' E 004°57'510.8
2017-Jun-25 04:01N 53°34' E 005°06'611.6
2017-Jun-25 03:31N 53°36' E 005°15'612.3
2017-Jun-25 03:00N 53°38' E 005°25'712.6
2017-Jun-25 02:25N 53°40' E 005°37'512.8
2017-Jun-25 02:00N 53°42' E 005°45'612.6
2017-Jun-25 01:30N 53°44' E 005°55'6211.2
2017-Jun-24 19:58N 54°00' E 007°37'510.4
2017-Jun-24 19:29N 54°01' E 007°46'511.1
2017-Jun-24 19:00N 54°01' E 007°55'811.4
2017-Jun-24 18:18N 54°01' E 008°08'411.6
2017-Jun-24 17:59N 54°00' E 008°15'611.7
2017-Jun-24 17:30N 53°59' E 008°24'714.4
2017-Jun-24 17:00N 53°58' E 008°36'714.8
2017-Jun-24 16:30N 53°52' E 008°44'713.7
2017-Jun-24 16:01N 53°51' E 008°55'713.6
2017-Jun-24 15:31N 53°53' E 009°06'2 3.5
2017-Jun-24 15:00N 53°54' E 009°09'3 2.9
2017-Jun-24 14:01N 53°56' E 009°12'4 7.6
2017-Jun-24 13:30N 53°59' E 009°16'4 8.2
2017-Jun-24 13:00N 54°03' E 009°18'5 8.9
2017-Jun-24 12:26N 54°08' E 009°20'58 3.8
2017-Jun-23 21:09N 54°37' E 010°45'211.9
2017-Jun-23 21:00N 54°39' E 010°47'611.2
2017-Jun-23 20:30N 54°44' E 010°51'611.0
2017-Jun-23 20:00N 54°49' E 010°52'611.2
2017-Jun-23 19:30N 54°55' E 010°54'611.2
2017-Jun-23 19:01N 54°59' E 011°00'611.4
2017-Jun-23 18:30N 55°05' E 011°02'611.4
2017-Jun-23 18:00N 55°10' E 011°03'510.6
2017-Jun-23 17:30N 55°16' E 011°04'24 0.7
2017-Jun-22 08:12N 55°40' E 011°06'0 0.0
2017-Jun-22 07:57N 55°40' E 011°06'0 0.0
2017-Jun-22 07:27N 55°40' E 011°06'0 0.0
2017-Jun-22 06:42N 55°40' E 011°06'0 0.0
2017-Jun-22 05:39N 55°40' E 011°06'0 0.0
2017-Jun-22 05:30N 55°40' E 011°06'85 2.8
2017-Jun-20 23:20N 57°03' E 011°41'413.2
2017-Jun-20 23:00N 57°07' E 011°38'712.8
2017-Jun-20 22:29N 57°14' E 011°34'612.9
2017-Jun-20 22:00N 57°19' E 011°30'713.0
2017-Jun-20 21:30N 57°26' E 011°26'612.6
2017-Jun-20 21:00N 57°31' E 011°19'713.3
2017-Jun-20 20:30N 57°35' E 011°10'713.4
2017-Jun-20 20:00N 57°40' E 011°01'713.4
2017-Jun-20 19:29N 57°44' E 010°51'612.8
2017-Jun-20 19:00N 57°48' E 010°42'713.6
2017-Jun-20 18:31N 57°47' E 010°29'813.0
2017-Jun-20 17:55N 57°46' E 010°15'10213.3
2017-Jun-20 10:16N 57°42' E 007°04'313.0
2017-Jun-20 10:01N 57°42' E 006°58'612.8
2017-Jun-20 09:30N 57°43' E 006°46'612.3
2017-Jun-20 09:00N 57°43' E 006°34'613.1
2017-Jun-20 08:31N 57°47' E 006°25'612.3
2017-Jun-20 08:00N 57°51' E 006°16'612.0
2017-Jun-20 07:30N 57°55' E 006°07'612.9
2017-Jun-20 07:00N 57°59' E 005°58'713.4
2017-Jun-20 06:29N 58°04' E 005°48'1113.1
2017-Jun-20 05:41N 58°11' E 005°33'1612.7
2017-Jun-20 04:27N 58°21' E 005°11'612.6
2017-Jun-20 04:00N 58°25' E 005°04'612.7
2017-Jun-20 03:31N 58°30' E 004°55'612.9
2017-Jun-20 03:01N 58°34' E 004°47'12210.9
2017-Jun-19 15:52N 60°36' E 004°21'411.6
2017-Jun-19 15:30N 60°39' E 004°25'610.9
2017-Jun-19 15:00N 60°44' E 004°32'8 8.0
2017-Jun-19 14:00N 60°49' E 004°44'611.1
2017-Jun-19 13:30N 60°51' E 004°55'4 8.5
2017-Jun-19 13:00N 60°49' E 005°03'0 0.0
2017-Jun-19 12:28N 60°49' E 005°03'0 0.0
2017-Jun-19 11:58N 60°49' E 005°03'0 0.0
2017-Jun-19 11:28N 60°49' E 005°03'0 0.0
2017-Jun-19 10:58N 60°49' E 005°03'0 0.0
2017-Jun-19 10:28N 60°49' E 005°03'0 0.0
2017-Jun-19 09:58N 60°49' E 005°03'0 0.0
2017-Jun-19 09:28N 60°49' E 005°03'0 0.0
2017-Jun-19 08:58N 60°49' E 005°03'0 0.0
2017-Jun-19 08:28N 60°49' E 005°03'0 0.0
2017-Jun-19 07:58N 60°49' E 005°03'0 0.0
2017-Jun-19 07:28N 60°49' E 005°03'0 0.0
2017-Jun-19 06:58N 60°49' E 005°03'0 0.0
2017-Jun-19 06:28N 60°49' E 005°03'0 0.0
2017-Jun-19 05:58N 60°49' E 005°03'0 0.0
2017-Jun-19 05:28N 60°49' E 005°03'0 0.0
2017-Jun-19 04:58N 60°49' E 005°03'0 0.0
2017-Jun-19 04:28N 60°49' E 005°03'0 0.0
2017-Jun-19 03:58N 60°49' E 005°03'0 0.0
2017-Jun-19 03:28N 60°49' E 005°03'0 0.0
2017-Jun-19 02:58N 60°49' E 005°03'0 0.0
2017-Jun-19 02:28N 60°49' E 005°03'0 0.0
2017-Jun-19 01:58N 60°49' E 005°03'0 0.0
2017-Jun-19 01:28N 60°49' E 005°03'0 0.0
2017-Jun-19 00:58N 60°49' E 005°03'0 0.0
2017-Jun-19 00:28N 60°49' E 005°03'0 0.0
2017-Jun-18 23:58N 60°49' E 005°03'0 0.0
2017-Jun-18 23:28N 60°49' E 005°03'0 0.0
2017-Jun-18 22:58N 60°49' E 005°03'0 0.0
2017-Jun-18 22:28N 60°49' E 005°03'0 0.0
2017-Jun-18 21:58N 60°49' E 005°03'0 0.0
2017-Jun-18 21:28N 60°49' E 005°03'0 0.0
2017-Jun-18 20:58N 60°49' E 005°03'0 0.0
2017-Jun-18 20:28N 60°49' E 005°03'0 0.0
2017-Jun-18 19:58N 60°49' E 005°03'0 0.0
2017-Jun-18 19:28N 60°49' E 005°03'0 0.0
2017-Jun-18 18:58N 60°49' E 005°03'0 0.0
2017-Jun-18 18:28N 60°49' E 005°03'0 0.0
2017-Jun-18 17:59N 60°49' E 005°03'1 1.1
2017-Jun-18 17:30N 60°49' E 005°02'2 4.0
2017-Jun-18 17:00N 60°49' E 004°58'0 0.0
2017-Jun-18 16:30N 60°49' E 004°58'  

Dump ship's entire track history